Time;durP1;ratioP1;P1;durP2;ratioP2;P2;SDS_P1;SDS_P2;PMS_P1;PMS_P2;Temp;Humidity;BMP_temperature;BMP_pressure;BME280_temperature;BME280_humidity;BME280_pressure;Samples;Min_cycle;Max_cycle;Signal;HPM_P1;HPM_P2
2020/12/31 00:01:30;;;;;;;8.00;3.83;;;11.30;99.90;;;;;;4806111;29;20505;-83
2020/12/31 00:03:56;;;;;;;6.93;2.55;;;11.30;99.90;;;;;;4824922;29;20026;-82
2020/12/31 00:06:22;;;;;;;5.70;2.55;;;11.30;99.90;;;;;;4816733;29;20145;-84
2020/12/31 00:08:48;;;;;;;4.32;2.35;;;11.30;99.90;;;;;;4810249;29;20292;-82
2020/12/31 00:11:15;;;;;;;6.72;2.63;;;11.30;99.90;;;;;;4801334;29;20087;-82
2020/12/31 00:13:41;;;;;;;6.72;2.55;;;11.30;99.90;;;;;;4810018;29;20034;-82
2020/12/31 00:16:07;;;;;;;8.48;2.92;;;11.30;99.90;;;;;;4805347;29;20133;-82
2020/12/31 00:18:34;;;;;;;6.00;2.00;;;11.30;99.90;;;;;;4820945;29;20113;-81
2020/12/31 00:21:00;;;;;;;4.90;2.33;;;11.30;99.90;;;;;;4782691;29;20027;-82
2020/12/31 00:23:26;;;;;;;6.38;2.45;;;11.30;99.90;;;;;;4818531;29;20125;-82
2020/12/31 00:25:53;;;;;;;12.05;2.85;;;11.30;99.90;;;;;;4832874;29;20064;-83
2020/12/31 00:28:20;;;;;;;4.63;2.50;;;11.30;99.90;;;;;;4811137;29;20486;-79
2020/12/31 00:30:48;;;;;;;6.55;2.53;;;11.30;99.90;;;;;;4820314;29;20026;-81
2020/12/31 00:33:19;;;;;;;5.18;2.58;;;11.20;99.90;;;;;;4805275;29;20113;-81
2020/12/31 00:35:49;;;;;;;7.93;2.88;;;11.20;99.90;;;;;;4805844;29;20084;-80
2020/12/31 00:38:16;;;;;;;7.05;2.28;;;11.20;99.90;;;;;;4791010;29;20114;-81
2020/12/31 00:40:42;;;;;;;7.47;2.08;;;11.20;99.90;;;;;;4788489;29;20122;-80
2020/12/31 00:43:08;;;;;;;6.95;2.22;;;11.20;99.90;;;;;;4820331;29;20031;-80
2020/12/31 00:45:34;;;;;;;4.53;2.28;;;11.20;99.90;;;;;;4822146;29;20030;-80
2020/12/31 00:48:00;;;;;;;5.93;2.50;;;11.20;99.90;;;;;;4805675;29;20047;-80
2020/12/31 00:50:26;;;;;;;7.57;2.25;;;11.20;99.90;;;;;;4805365;29;20038;-80
2020/12/31 00:52:52;;;;;;;4.38;2.53;;;11.10;99.90;;;;;;4819927;29;20435;-80
2020/12/31 00:55:19;;;;;;;6.00;2.35;;;11.10;99.90;;;;;;4820566;29;20057;-81
2020/12/31 00:57:47;;;;;;;6.55;2.50;;;11.10;99.90;;;;;;4820768;29;20171;-80
2020/12/31 01:00:14;;;;;;;3.85;2.15;;;11.10;99.90;;;;;;4820918;29;20038;-80
2020/12/31 01:02:58;;;;;;;7.47;2.08;;;11.10;99.90;;;;;;4801628;29;20061;-83
2020/12/31 01:05:25;;;;;;;7.20;3.03;;;11.10;99.90;;;;;;4802325;29;20397;-81
2020/12/31 01:07:52;;;;;;;4.22;2.05;;;11.00;99.90;;;;;;4816992;29;20055;-80
2020/12/31 01:10:18;;;;;;;4.55;2.38;;;11.10;99.90;;;;;;4799462;29;20054;-90
2020/12/31 01:12:45;;;;;;;10.35;2.60;;;11.00;99.90;;;;;;4818640;29;20041;-92
2020/12/31 01:15:11;;;;;;;3.95;1.95;;;11.00;99.90;;;;;;4811806;29;20132;-80
2020/12/31 01:17:37;;;;;;;7.15;1.92;;;11.00;99.90;;;;;;4791186;29;20121;-80
2020/12/31 01:20:04;;;;;;;6.22;2.05;;;11.00;99.90;;;;;;4820064;29;20038;-85
2020/12/31 01:22:31;;;;;;;6.53;1.95;;;10.90;99.90;;;;;;4820017;29;20022;-91
2020/12/31 01:24:57;;;;;;;9.27;2.33;;;10.90;99.90;;;;;;4805593;29;20424;-81
2020/12/31 01:27:23;;;;;;;3.42;1.88;;;10.90;99.90;;;;;;4804734;29;20027;-82
2020/12/31 01:29:49;;;;;;;5.25;1.95;;;10.80;99.90;;;;;;4804880;29;20045;-81
2020/12/31 01:32:15;;;;;;;4.53;1.98;;;10.80;99.90;;;;;;4804014;29;20491;-82
2020/12/31 01:34:41;;;;;;;6.32;1.67;;;10.80;99.90;;;;;;4809318;29;20038;-81
2020/12/31 01:37:07;;;;;;;4.82;1.60;;;10.80;99.90;;;;;;4801737;29;20072;-80
2020/12/31 01:39:33;;;;;;;4.53;2.40;;;10.80;99.90;;;;;;4786603;29;20494;-81
2020/12/31 01:42:06;;;;;;;13.43;2.25;;;10.70;99.90;;;;;;4814814;29;20037;-81
2020/12/31 01:44:32;;;;;;;3.20;1.55;;;10.70;99.90;;;;;;4804559;29;20504;-82
2020/12/31 01:47:00;;;;;;;4.03;1.63;;;10.60;99.90;;;;;;4821024;29;20490;-83
2020/12/31 01:49:29;;;;;;;4.13;1.83;;;10.60;99.90;;;;;;4803894;29;20101;-82
2020/12/31 01:51:57;;;;;;;5.63;1.65;;;10.70;99.90;;;;;;4818062;29;20026;-81
2020/12/31 01:54:24;;;;;;;4.40;1.70;;;10.70;99.90;;;;;;4802774;29;20398;-81
2020/12/31 01:56:54;;;;;;;3.85;1.83;;;10.70;99.90;;;;;;4803039;29;20037;-81
2020/12/31 01:59:21;;;;;;;2.30;1.23;;;10.70;99.90;;;;;;4818604;29;20071;-81
2020/12/31 02:01:48;;;;;;;3.97;1.50;;;10.60;99.90;;;;;;4788694;29;20035;-82
2020/12/31 02:04:14;;;;;;;4.80;1.92;;;10.70;99.90;;;;;;4820044;29;20070;-82
2020/12/31 02:06:42;;;;;;;5.38;1.88;;;10.70;99.90;;;;;;4828017;29;20525;-82
2020/12/31 02:09:08;;;;;;;6.25;1.50;;;10.80;99.90;;;;;;4838606;29;20041;-81
2020/12/31 02:11:34;;;;;;;6.30;1.77;;;10.80;99.90;;;;;;4822332;29;20038;-82
2020/12/31 02:14:02;;;;;;;5.43;2.40;;;10.80;99.90;;;;;;4822739;29;20049;-83
2020/12/31 02:16:33;;;;;;;4.38;1.98;;;10.80;99.90;;;;;;4807422;29;20167;-81
2020/12/31 02:19:04;;;;;;;2.75;1.02;;;10.90;99.90;;;;;;4822570;29;20038;-90
2020/12/31 02:21:38;;;;;;;4.10;1.35;;;10.90;99.90;;;;;;4822676;29;20034;-81
2020/12/31 02:24:06;;;;;;;7.00;1.48;;;10.90;99.90;;;;;;4822508;29;20102;-81
2020/12/31 02:26:33;;;;;;;4.40;1.30;;;10.90;99.90;;;;;;4822157;29;20104;-88
2020/12/31 02:29:01;;;;;;;2.97;1.00;;;10.90;99.90;;;;;;4807157;29;20042;-81
2020/12/31 02:31:28;;;;;;;3.72;0.90;;;10.80;99.90;;;;;;4822441;29;20557;-81
2020/12/31 02:33:57;;;;;;;6.28;1.10;;;10.80;99.90;;;;;;4822066;29;20132;-81
2020/12/31 02:36:26;;;;;;;3.08;1.40;;;10.90;99.90;;;;;;4821994;29;20120;-82
2020/12/31 02:38:52;;;;;;;1.83;1.13;;;10.80;99.90;;;;;;4807056;29;20037;-81
2020/12/31 02:41:19;;;;;;;3.05;0.80;;;10.80;99.90;;;;;;4822475;29;20393;-81
2020/12/31 02:43:45;;;;;;;3.40;0.80;;;10.90;99.90;;;;;;4809689;29;20037;-82
2020/12/31 02:46:14;;;;;;;1.85;0.70;;;10.80;99.90;;;;;;4807486;29;20027;-81
2020/12/31 02:48:41;;;;;;;4.15;1.27;;;10.80;99.90;;;;;;4807800;29;20615;-82
2020/12/31 02:51:07;;;;;;;2.53;0.70;;;10.80;99.90;;;;;;4792652;29;20043;-82
2020/12/31 02:53:34;;;;;;;3.30;0.88;;;10.90;99.90;;;;;;4805781;29;20042;-90
2020/12/31 02:56:01;;;;;;;3.03;0.95;;;10.90;99.90;;;;;;4810188;29;20427;-81
2020/12/31 02:58:27;;;;;;;3.30;0.80;;;10.90;99.90;;;;;;4825649;29;20026;-82
2020/12/31 03:00:53;;;;;;;0.98;0.50;;;10.90;99.90;;;;;;4840682;29;20038;-82
2020/12/31 03:03:19;;;;;;;1.85;0.65;;;11.00;99.90;;;;;;4842006;29;20034;-82
2020/12/31 03:05:45;;;;;;;2.95;0.70;;;11.00;99.90;;;;;;4824932;29;20037;-82
2020/12/31 03:08:11;;;;;;;2.97;0.88;;;11.00;99.90;;;;;;4825195;29;20041;-81
2020/12/31 03:10:37;;;;;;;8.18;1.02;;;11.00;99.90;;;;;;4825268;29;20106;-82
2020/12/31 03:13:03;;;;;;;2.30;0.80;;;11.00;99.90;;;;;;4824978;29;20477;-82
2020/12/31 03:15:29;;;;;;;5.60;0.98;;;11.10;99.90;;;;;;4825235;29;20913;-82
2020/12/31 03:17:55;;;;;;;3.25;1.10;;;11.00;99.90;;;;;;4821789;29;20030;-82
2020/12/31 03:20:21;;;;;;;5.13;0.90;;;11.00;99.90;;;;;;4807093;29;20031;-91
2020/12/31 03:22:47;;;;;;;4.72;0.88;;;10.90;99.90;;;;;;4807295;29;20451;-85
2020/12/31 03:25:13;;;;;;;4.22;0.80;;;10.90;99.90;;;;;;4824177;29;20045;-82
2020/12/31 03:27:39;;;;;;;1.88;0.40;;;10.90;99.90;;;;;;4807865;29;20065;-81
2020/12/31 03:30:05;;;;;;;2.08;0.70;;;10.80;99.90;;;;;;4793767;29;20045;-81
2020/12/31 03:32:31;;;;;;;2.40;1.05;;;10.80;99.90;;;;;;4791599;29;20066;-82
2020/12/31 03:34:58;;;;;;;3.03;0.93;;;10.80;99.90;;;;;;4804381;29;20042;-81
2020/12/31 03:37:25;;;;;;;1.17;0.43;;;10.80;99.90;;;;;;4809637;29;20029;-82
2020/12/31 03:39:51;;;;;;;4.28;0.57;;;10.90;99.90;;;;;;4810041;29;20038;-82
2020/12/31 03:42:18;;;;;;;3.70;0.80;;;10.90;99.90;;;;;;4824755;29;20568;-82
2020/12/31 03:44:44;;;;;;;1.60;0.47;;;11.00;99.90;;;;;;4809815;29;20042;-82
2020/12/31 03:47:10;;;;;;;4.15;0.47;;;11.00;99.90;;;;;;4809601;29;20065;-82
2020/12/31 03:49:36;;;;;;;4.85;1.17;;;11.00;99.90;;;;;;4824618;29;20038;-83
2020/12/31 03:52:03;;;;;;;3.88;1.17;;;11.00;99.90;;;;;;4839904;29;20481;-82
2020/12/31 03:54:29;;;;;;;3.47;0.57;;;11.00;99.90;;;;;;4823929;29;20053;-81
2020/12/31 03:56:55;;;;;;;3.72;1.08;;;11.00;99.90;;;;;;4809511;29;20481;-81
2020/12/31 03:59:21;;;;;;;5.82;1.17;;;11.00;99.90;;;;;;4840711;29;20113;-82
2020/12/31 04:01:47;;;;;;;4.75;0.68;;;11.10;99.90;;;;;;4824749;29;20038;-82
2020/12/31 04:04:13;;;;;;;1.35;0.43;;;11.00;99.90;;;;;;4809474;29;20548;-83
2020/12/31 04:06:39;;;;;;;2.10;0.50;;;11.20;99.90;;;;;;4824069;29;20413;-81
2020/12/31 04:09:05;;;;;;;5.85;0.50;;;11.20;99.90;;;;;;4824051;29;20033;-82
2020/12/31 04:11:31;;;;;;;4.53;0.70;;;11.20;99.90;;;;;;4809230;29;20069;-82
2020/12/31 04:13:57;;;;;;;7.45;1.23;;;11.20;99.90;;;;;;4839409;29;20079;-81
2020/12/31 04:16:23;;;;;;;2.85;0.75;;;11.30;99.90;;;;;;4829396;29;20041;-82
2020/12/31 04:18:49;;;;;;;2.78;0.57;;;11.30;99.90;;;;;;4823835;29;20030;-85
2020/12/31 04:21:20;;;;;;;2.70;0.73;;;11.20;99.90;;;;;;4840492;29;20072;-81
2020/12/31 04:23:48;;;;;;;2.28;0.93;;;11.30;99.90;;;;;;4824531;29;20037;-89
2020/12/31 04:26:14;;;;;;;1.15;0.45;;;11.30;99.90;;;;;;4824262;29;20034;-82
2020/12/31 04:28:40;;;;;;;1.02;0.60;;;11.20;99.90;;;;;;4809062;29;20037;-82
2020/12/31 04:31:06;;;;;;;6.07;0.60;;;11.20;99.90;;;;;;4823883;29;20045;-83
2020/12/31 04:33:32;;;;;;;1.88;0.75;;;11.20;99.90;;;;;;4823884;29;20034;-82
2020/12/31 04:35:58;;;;;;;2.17;0.60;;;11.20;99.90;;;;;;4823305;29;20033;-82
2020/12/31 04:38:24;;;;;;;4.35;1.15;;;11.20;99.90;;;;;;4824124;29;20037;-83
2020/12/31 04:40:50;;;;;;;1.13;0.75;;;11.20;99.90;;;;;;4805378;29;20046;-82
2020/12/31 04:43:16;;;;;;;10.38;0.57;;;11.10;99.90;;;;;;4805567;29;20398;-82
2020/12/31 04:45:43;;;;;;;1.63;0.70;;;11.10;99.90;;;;;;4822230;29;20038;-83
2020/12/31 04:48:33;;;;;;;0.88;0.70;;;11.10;99.90;;;;;;4823371;29;20040;-82
2020/12/31 04:51:05;;;;;;;4.00;0.40;;;11.10;99.90;;;;;;4826842;29;20121;-84
2020/12/31 04:53:32;;;;;;;1.77;0.63;;;11.00;99.90;;;;;;4823343;29;20062;-83
2020/12/31 04:56:01;;;;;;;4.43;0.60;;;11.00;99.90;;;;;;4823882;29;20240;-82
2020/12/31 04:58:27;;;;;;;0.80;0.50;;;11.00;99.90;;;;;;4823602;29;20037;-82
2020/12/31 05:00:53;;;;;;;4.22;0.75;;;11.00;99.90;;;;;;4823291;29;20066;-82
2020/12/31 05:03:19;;;;;;;2.25;0.70;;;11.00;99.90;;;;;;4808204;29;20030;-85
2020/12/31 05:05:49;;;;;;;6.13;1.00;;;11.00;99.90;;;;;;4808108;29;20069;-82
2020/12/31 05:08:18;;;;;;;2.25;0.55;;;11.10;99.90;;;;;;4823003;29;20030;-82
2020/12/31 05:10:53;;;;;;;3.88;0.80;;;11.10;99.90;;;;;;4808155;29;20034;-83
2020/12/31 05:13:19;;;;;;;1.30;0.38;;;11.00;99.90;;;;;;4808434;29;20033;-82
2020/12/31 05:15:45;;;;;;;4.30;0.82;;;11.00;99.90;;;;;;4839813;29;20048;-82
2020/12/31 05:18:26;;;;;;;1.75;0.38;;;11.00;99.90;;;;;;4808027;29;20034;-82
2020/12/31 05:20:56;;;;;;;7.45;0.80;;;11.00;99.90;;;;;;4807895;29;20041;-82
2020/12/31 05:23:27;;;;;;;3.53;0.82;;;11.00;99.90;;;;;;4808200;29;20037;-91
2020/12/31 05:25:53;;;;;;;4.85;0.65;;;11.00;99.90;;;;;;4808201;29;20041;-82
2020/12/31 05:28:24;;;;;;;3.00;0.95;;;11.00;99.90;;;;;;4804899;29;20078;-82
2020/12/31 05:30:51;;;;;;;1.88;0.55;;;11.00;99.90;;;;;;4792963;29;20402;-84
2020/12/31 05:33:29;;;;;;;2.28;1.20;;;11.10;99.90;;;;;;4839357;29;20041;-83
2020/12/31 05:36:20;;;;;;;3.97;0.90;;;11.10;99.90;;;;;;4822930;29;20053;-81
2020/12/31 05:39:06;;;;;;;2.63;1.20;;;11.10;99.90;;;;;;4828166;29;20050;-90
2020/12/31 05:41:34;;;;;;;9.68;1.30;;;11.10;99.90;;;;;;4837506;29;20033;-82
2020/12/31 05:44:08;;;;;;;2.45;0.73;;;11.10;99.90;;;;;;4839191;29;20037;-83
2020/12/31 05:46:36;;;;;;;2.55;0.80;;;11.10;99.90;;;;;;4823255;29;20110;-82
2020/12/31 05:49:05;;;;;;;3.38;0.90;;;11.10;99.90;;;;;;4839108;29;20034;-82
2020/12/31 05:51:32;;;;;;;2.30;0.60;;;11.00;99.90;;;;;;4837913;29;20474;-82
2020/12/31 05:54:07;;;;;;;4.43;0.70;;;11.00;99.90;;;;;;4807133;29;20114;-82
2020/12/31 05:56:36;;;;;;;2.55;0.73;;;11.00;99.90;;;;;;4823160;29;20070;-82
2020/12/31 05:59:07;;;;;;;5.05;0.70;;;11.00;99.90;;;;;;4807500;29;20034;-83
2020/12/31 06:01:37;;;;;;;1.35;0.50;;;11.00;99.90;;;;;;4822748;29;20030;-82
2020/12/31 06:04:19;;;;;;;2.72;0.80;;;11.00;99.90;;;;;;4807213;29;20029;-82
2020/12/31 06:06:57;;;;;;;1.65;0.50;;;10.90;99.90;;;;;;4807516;29;20134;-82
2020/12/31 06:09:31;;;;;;;3.65;0.80;;;10.90;99.90;;;;;;4823007;29;20037;-83
2020/12/31 06:12:01;;;;;;;6.40;0.65;;;10.90;99.90;;;;;;4807234;29;20064;-82
2020/12/31 06:14:30;;;;;;;3.08;0.98;;;10.80;99.90;;;;;;4822474;29;20048;-89
2020/12/31 06:16:58;;;;;;;5.15;0.80;;;10.80;99.90;;;;;;4807300;29;20047;-82
2020/12/31 06:19:32;;;;;;;2.08;0.47;;;10.90;99.90;;;;;;4826258;29;20042;-83
2020/12/31 06:22:03;;;;;;;4.15;0.95;;;10.80;99.90;;;;;;4811068;29;20030;-88
2020/12/31 06:24:40;;;;;;;4.60;0.75;;;10.80;99.90;;;;;;4825719;29;20442;-82
2020/12/31 06:27:09;;;;;;;3.95;0.75;;;10.90;99.90;;;;;;4826377;29;20041;-82
2020/12/31 06:29:41;;;;;;;5.38;0.60;;;10.90;99.90;;;;;;4826197;29;20485;-83
2020/12/31 06:32:14;;;;;;;4.38;1.00;;;10.90;99.90;;;;;;4826070;29;20038;-83
2020/12/31 06:34:40;;;;;;;;;;;10.90;99.90;;;;;;4825921;29;20036;-83
2020/12/31 06:37:12;;;;;;;2.67;0.60;;;10.90;99.90;;;;;;4826101;29;19916;-83
2020/12/31 06:39:39;;;;;;;2.60;0.90;;;10.90;99.90;;;;;;4841321;29;20045;-83
2020/12/31 06:42:06;;;;;;;2.95;0.85;;;10.90;99.90;;;;;;4842415;29;20030;-84
2020/12/31 06:44:32;;;;;;;2.58;1.00;;;10.90;99.90;;;;;;4810988;29;20564;-90
2020/12/31 06:46:59;;;;;;;3.30;0.82;;;10.90;99.90;;;;;;4807371;29;20416;-82
2020/12/31 06:49:54;;;;;;;4.18;0.75;;;10.90;99.90;;;;;;4792685;29;20375;-82
2020/12/31 06:52:22;;;;;;;1.25;1.00;;;10.90;99.90;;;;;;4824156;29;20045;-83
2020/12/31 06:54:49;;;;;;;7.35;1.02;;;10.80;99.90;;;;;;4808069;29;20042;-82
2020/12/31 06:57:40;;;;;;;4.85;1.00;;;10.80;99.90;;;;;;4822354;29;20034;-82
2020/12/31 07:00:06;;;;;;;2.33;1.02;;;10.80;99.90;;;;;;4810096;29;20398;-91
2020/12/31 07:02:45;;;;;;;2.75;0.88;;;10.80;99.90;;;;;;4825303;29;20120;-82
2020/12/31 07:05:31;;;;;;;5.40;0.75;;;10.60;99.90;;;;;;4810537;29;20046;-82
2020/12/31 07:07:57;;;;;;;3.95;0.70;;;10.30;99.90;;;;;;4824905;29;20053;-82
2020/12/31 07:10:23;;;;;;;2.08;0.60;;;10.20;99.90;;;;;;4841820;29;20034;-82
2020/12/31 07:12:49;;;;;;;2.60;1.10;;;10.10;99.90;;;;;;4840680;29;20065;-82
2020/12/31 07:15:17;;;;;;;1.08;0.70;;;10.20;99.90;;;;;;4810293;29;20505;-82
2020/12/31 07:17:45;;;;;;;1.40;0.50;;;10.20;99.90;;;;;;4807265;29;20522;-82
2020/12/31 07:20:13;;;;;;;1.10;0.40;;;10.20;99.90;;;;;;4792618;29;20038;-82
2020/12/31 07:22:41;;;;;;;1.58;0.35;;;10.20;99.90;;;;;;4839615;29;20030;-82
2020/12/31 07:25:18;;;;;;;3.03;0.40;;;10.30;99.90;;;;;;4810199;29;20386;-82
2020/12/31 07:27:46;;;;;;;3.30;0.70;;;10.30;99.90;;;;;;4810187;29;20034;-83
2020/12/31 07:30:14;;;;;;;0.57;0.30;;;10.40;99.90;;;;;;4840831;29;20030;-82
2020/12/31 07:33:01;;;;;;;4.15;0.77;;;10.60;99.90;;;;;;4809848;29;20086;-82
2020/12/31 07:35:43;;;;;;;1.08;0.40;;;10.70;99.90;;;;;;4824827;29;20046;-82
2020/12/31 07:38:13;;;;;;;0.60;0.55;;;10.80;99.90;;;;;;4825077;29;20401;-83
2020/12/31 07:40:47;;;;;;;0.95;0.35;;;10.80;99.90;;;;;;4810040;29;20046;-84
2020/12/31 07:43:15;;;;;;;;;;;10.90;99.90;;;;;;4825044;29;20064;-81
2020/12/31 07:45:51;;;;;;;0.85;0.38;;;10.90;99.90;;;;;;4809989;29;19944;-81
2020/12/31 07:48:19;;;;;;;1.52;0.40;;;11.00;99.90;;;;;;4824657;29;20489;-81
2020/12/31 07:50:59;;;;;;;2.13;0.50;;;11.10;99.90;;;;;;4824738;29;20500;-82
2020/12/31 07:53:29;;;;;;;2.00;0.40;;;11.10;99.90;;;;;;4824918;29;20835;-83
2020/12/31 07:55:56;;;;;;;3.60;0.57;;;11.20;99.90;;;;;;4809649;29;20050;-82
2020/12/31 07:58:27;;;;;;;2.47;0.60;;;11.30;99.90;;;;;;4806321;29;20118;-86
2020/12/31 08:01:07;;;;;;;3.30;0.52;;;11.50;99.90;;;;;;4822389;29;20034;-82
2020/12/31 08:03:34;;;;;;;0.88;0.50;;;11.60;99.90;;;;;;4803185;29;20501;-82
2020/12/31 08:06:11;;;;;;;1.90;0.50;;;11.80;99.90;;;;;;4840628;29;20034;-82
2020/12/31 08:08:37;;;;;;;3.65;0.88;;;12.00;99.90;;;;;;4809067;29;20042;-84
2020/12/31 08:11:07;;;;;;;1.02;0.40;;;12.10;99.90;;;;;;4809384;29;20454;-83
2020/12/31 08:13:34;;;;;;;0.50;0.30;;;12.00;99.90;;;;;;4809088;29;20457;-83
2020/12/31 08:16:00;;;;;;;2.35;0.88;;;11.80;99.90;;;;;;4824803;29;20041;-83
2020/12/31 08:18:26;;;;;;;2.50;0.65;;;11.80;99.90;;;;;;4821024;29;20066;-83
2020/12/31 08:20:56;;;;;;;1.33;0.50;;;11.80;99.90;;;;;;4791058;29;20529;-83
2020/12/31 08:23:37;;;;;;;7.00;0.85;;;11.80;99.90;;;;;;4822501;29;20025;-87
2020/12/31 08:26:09;;;;;;;6.20;0.80;;;11.90;99.90;;;;;;4798471;29;20577;-84
2020/12/31 08:28:37;;;;;;;3.25;0.70;;;11.90;99.90;;;;;;4808959;29;20125;-83
2020/12/31 08:31:15;;;;;;;1.17;0.40;;;11.90;99.90;;;;;;4824302;29;20124;-83
2020/12/31 08:33:42;;;;;;;3.75;0.60;;;11.90;99.90;;;;;;4809718;29;20086;-83
2020/12/31 08:36:09;;;;;;;1.90;0.30;;;12.00;99.90;;;;;;4824121;29;20571;-83
2020/12/31 08:38:40;;;;;;;2.65;0.40;;;12.00;99.90;;;;;;4824060;29;20032;-85
2020/12/31 08:41:08;;;;;;;3.20;0.40;;;12.10;99.90;;;;;;4808770;29;20038;-80
2020/12/31 08:43:38;;;;;;;2.13;0.47;;;12.10;99.90;;;;;;4824090;29;20065;-86
2020/12/31 08:46:17;;;;;;;0.82;0.50;;;12.20;99.90;;;;;;4790911;29;20045;-82
2020/12/31 08:48:52;;;;;;;1.42;0.47;;;12.30;99.90;;;;;;4808516;29;20042;-83
2020/12/31 08:51:19;;;;;;;3.35;0.60;;;12.30;99.90;;;;;;4839500;29;20033;-80
2020/12/31 08:53:56;;;;;;;1.38;0.40;;;12.40;99.90;;;;;;4839155;29;20026;-82
2020/12/31 08:56:25;;;;;;;1.30;0.28;;;12.40;99.90;;;;;;4823893;29;20042;-84
2020/12/31 08:59:05;;;;;;;1.38;0.63;;;12.50;99.90;;;;;;4824652;29;20029;-85
2020/12/31 09:01:32;;;;;;;1.95;0.28;;;12.60;99.90;;;;;;4798064;29;20073;-84
2020/12/31 09:04:16;;;;;;;1.48;0.60;;;12.70;99.90;;;;;;4808273;29;20018;-83
2020/12/31 09:06:45;;;;;;;3.47;0.40;;;12.70;99.90;;;;;;4808389;29;20049;-83
2020/12/31 09:09:18;;;;;;;3.55;0.63;;;12.60;99.90;;;;;;4795863;29;20072;-85
2020/12/31 09:12:01;;;;;;;3.15;0.50;;;12.70;99.90;;;;;;4808136;29;20041;-84
2020/12/31 09:14:29;;;;;;;1.17;0.30;;;12.70;99.90;;;;;;4823151;29;20422;-84
2020/12/31 09:16:55;;;;;;;3.13;0.47;;;12.80;99.90;;;;;;4822508;29;20505;-81
2020/12/31 09:19:22;;;;;;;1.85;0.40;;;12.80;99.90;;;;;;4823337;29;20063;-84
2020/12/31 09:21:48;;;;;;;0.82;0.35;;;12.80;99.90;;;;;;4819251;29;20062;-83
2020/12/31 09:24:15;;;;;;;0.98;0.30;;;12.80;99.90;;;;;;4805258;29;20035;-84
2020/12/31 09:26:53;;;;;;;1.55;0.22;;;12.80;99.90;;;;;;4832529;29;20553;-83
2020/12/31 09:29:20;;;;;;;5.53;0.55;;;12.90;99.90;;;;;;4823407;29;20120;-84
2020/12/31 09:31:46;;;;;;;0.70;0.22;;;13.10;99.90;;;;;;4807669;29;20030;-83
2020/12/31 09:34:13;;;;;;;2.33;0.45;;;13.20;99.90;;;;;;4813522;29;20057;-84
2020/12/31 09:36:40;;;;;;;1.23;0.40;;;13.20;99.90;;;;;;4825968;29;20523;-85
2020/12/31 09:39:07;;;;;;;1.48;0.60;;;13.30;99.90;;;;;;4797557;29;20427;-85
2020/12/31 09:41:33;;;;;;;1.65;0.30;;;13.20;99.90;;;;;;4821731;29;20035;-85
2020/12/31 09:44:00;;;;;;;0.45;0.10;;;13.50;99.90;;;;;;4821500;29;20032;-82
2020/12/31 09:46:27;;;;;;;0.50;0.20;;;13.70;99.90;;;;;;4814188;29;20125;-83
2020/12/31 09:48:53;;;;;;;1.10;0.35;;;13.90;99.90;;;;;;4808268;29;20036;-84
2020/12/31 09:51:20;;;;;;;1.77;0.60;;;14.00;99.90;;;;;;4811230;29;20065;-84
2020/12/31 09:53:47;;;;;;;1.85;0.28;;;14.20;99.90;;;;;;4807180;29;20030;-83
2020/12/31 09:56:13;;;;;;;2.25;0.30;;;14.30;99.90;;;;;;4823407;29;20041;-83
2020/12/31 09:58:40;;;;;;;1.33;0.40;;;14.50;99.90;;;;;;4807554;29;20030;-83
2020/12/31 10:01:09;;;;;;;1.10;0.52;;;14.70;99.90;;;;;;4794462;29;20149;-83
2020/12/31 10:03:37;;;;;;;6.05;0.60;;;14.80;99.90;;;;;;4822264;29;20034;-83
2020/12/31 10:06:06;;;;;;;2.22;0.30;;;15.00;99.90;;;;;;4804537;29;20062;-83
2020/12/31 10:08:33;;;;;;;1.90;0.75;;;15.10;99.90;;;;;;4804833;29;20439;-83
2020/12/31 10:11:00;;;;;;;2.85;0.50;;;15.40;99.90;;;;;;4822829;29;20515;-84
2020/12/31 10:13:26;;;;;;;1.52;0.40;;;15.30;99.90;;;;;;4807732;29;20440;-82
2020/12/31 10:15:52;;;;;;;0.90;0.40;;;15.60;99.90;;;;;;4804620;29;20046;-84
2020/12/31 10:18:19;;;;;;;0.60;0.32;;;15.60;99.90;;;;;;4822711;29;20512;-83
2020/12/31 10:20:46;;;;;;;1.25;0.38;;;15.50;99.90;;;;;;4807571;29;20034;-83
2020/12/31 10:23:12;;;;;;;3.58;0.50;;;15.50;99.90;;;;;;4807946;29;20175;-83
2020/12/31 10:25:38;;;;;;;2.38;0.68;;;15.70;99.90;;;;;;4805595;29;20117;-83
2020/12/31 10:28:04;;;;;;;9.70;0.82;;;15.80;99.90;;;;;;4806145;29;20492;-82
2020/12/31 10:30:31;;;;;;;1.63;0.80;;;15.50;99.90;;;;;;4821794;29;20444;-82
2020/12/31 10:32:57;;;;;;;1.25;0.60;;;15.50;99.90;;;;;;4794517;29;20126;-82
2020/12/31 10:35:23;;;;;;;0.88;0.30;;;15.60;99.90;;;;;;4835542;29;20042;-83
2020/12/31 10:37:49;;;;;;;3.30;0.57;;;15.60;99.90;;;;;;4806406;29;20026;-83
2020/12/31 10:40:15;;;;;;;0.47;0.32;;;15.70;99.90;;;;;;4806767;29;20064;-82
2020/12/31 10:42:42;;;;;;;2.72;0.70;;;15.50;99.90;;;;;;4827897;29;20114;-83
2020/12/31 10:45:08;;;;;;;4.30;0.98;;;15.40;99.60;;;;;;4834495;29;20038;-82
2020/12/31 10:47:34;;;;;;;1.15;0.40;;;15.50;99.40;;;;;;4837216;29;20034;-82
2020/12/31 10:50:00;;;;;;;2.35;0.50;;;15.20;98.90;;;;;;4806807;29;20037;-82
2020/12/31 10:52:27;;;;;;;2.05;0.50;;;15.00;99.30;;;;;;4821608;29;20037;-82
2020/12/31 10:54:53;;;;;;;0.93;0.60;;;14.80;99.50;;;;;;4819046;29;20486;-83
2020/12/31 10:57:19;;;;;;;3.65;0.65;;;14.80;99.80;;;;;;4805004;29;20371;-82
2020/12/31 10:59:45;;;;;;;3.53;0.60;;;14.90;99.90;;;;;;4792923;29;20545;-83
2020/12/31 11:02:12;;;;;;;3.22;0.90;;;15.30;99.90;;;;;;4805294;29;20034;-83
2020/12/31 11:04:38;;;;;;;1.35;0.73;;;15.60;99.90;;;;;;4804957;29;20102;-82
2020/12/31 11:07:04;;;;;;;1.50;0.68;;;15.90;99.30;;;;;;4820485;29;20061;-82
2020/12/31 11:09:30;;;;;;;3.05;0.73;;;16.20;99.00;;;;;;4801037;29;20181;-82
2020/12/31 11:11:56;;;;;;;2.45;0.90;;;15.80;98.40;;;;;;4805684;29;20042;-82
2020/12/31 11:14:22;;;;;;;2.40;0.40;;;15.90;98.60;;;;;;4800676;29;20134;-83
2020/12/31 11:16:50;;;;;;;3.88;1.05;;;16.10;98.30;;;;;;4789178;29;20049;-83
2020/12/31 11:19:16;;;;;;;2.97;0.73;;;16.10;97.90;;;;;;4825764;29;20596;-83
2020/12/31 11:21:43;;;;;;;2.30;0.50;;;15.90;97.90;;;;;;4816465;29;20026;-82
2020/12/31 11:24:09;;;;;;;3.60;0.50;;;16.20;97.80;;;;;;4800846;29;20049;-82
2020/12/31 11:26:36;;;;;;;2.20;0.57;;;15.90;96.90;;;;;;4817261;29;20042;-83
2020/12/31 11:29:03;;;;;;;0.80;0.40;;;15.80;96.20;;;;;;4803130;29;20122;-82
2020/12/31 11:31:30;;;;;;;4.57;0.85;;;16.00;97.00;;;;;;4804070;29;20056;-82
2020/12/31 11:33:57;;;;;;;1.20;0.57;;;16.30;96.50;;;;;;4799438;29;20034;-82
2020/12/31 11:36:24;;;;;;;5.70;1.17;;;16.20;95.90;;;;;;4802404;29;20199;-82
2020/12/31 11:38:51;;;;;;;1.85;0.65;;;16.40;97.20;;;;;;4820119;29;20477;-82
2020/12/31 11:41:17;;;;;;;3.65;0.82;;;16.60;96.60;;;;;;4819514;29;20035;-83
2020/12/31 11:43:44;;;;;;;1.83;0.85;;;16.50;96.30;;;;;;4805538;29;20026;-82
2020/12/31 11:46:10;;;;;;;3.30;0.60;;;16.40;95.40;;;;;;4803772;29;20125;-83
2020/12/31 11:48:37;;;;;;;5.15;0.95;;;15.50;97.30;;;;;;4819647;29;20034;-81
2020/12/31 11:51:07;;;;;;;3.40;1.20;;;15.70;97.40;;;;;;4820385;29;20034;-83
2020/12/31 11:53:33;;;;;;;5.10;1.33;;;15.50;96.60;;;;;;4806690;29;20073;-81
2020/12/31 11:56:03;;;;;;;3.83;0.73;;;15.80;96.70;;;;;;4815813;29;20074;-83
2020/12/31 11:58:29;;;;;;;4.60;1.13;;;16.00;96.40;;;;;;4811842;29;20038;-83
2020/12/31 12:00:56;;;;;;;3.75;1.20;;;16.10;96.30;;;;;;4810975;29;20042;-82
2020/12/31 12:03:24;;;;;;;6.72;1.77;;;15.80;96.20;;;;;;4804032;29;20030;-82
2020/12/31 12:05:51;;;;;;;1.95;0.70;;;16.00;95.80;;;;;;4806886;29;20027;-81
2020/12/31 12:08:17;;;;;;;2.47;0.75;;;15.90;95.20;;;;;;4801628;29;20406;-82
2020/12/31 12:10:48;;;;;;;2.40;1.27;;;15.40;95.80;;;;;;4824327;29;20361;-82
2020/12/31 12:13:15;;;;;;;3.28;0.60;;;15.40;95.70;;;;;;4798348;29;20042;-83
2020/12/31 12:15:42;;;;;;;2.80;0.57;;;15.60;95.00;;;;;;4822895;29;20147;-83
2020/12/31 12:18:08;;;;;;;3.10;0.50;;;15.80;95.50;;;;;;4820583;29;20124;-81
2020/12/31 12:20:34;;;;;;;2.30;0.70;;;15.20;96.40;;;;;;4819798;29;20042;-84
2020/12/31 12:23:00;;;;;;;5.05;1.02;;;15.40;96.80;;;;;;4815420;29;20144;-83
2020/12/31 12:25:26;;;;;;;2.63;0.88;;;15.80;96.40;;;;;;4807823;29;20030;-84
2020/12/31 12:27:52;;;;;;;4.45;1.02;;;16.00;95.90;;;;;;4823653;29;20056;-82
2020/12/31 12:30:19;;;;;;;1.77;0.60;;;15.80;96.50;;;;;;4812086;29;20062;-82
2020/12/31 12:32:46;;;;;;;5.45;1.10;;;15.80;96.70;;;;;;4819759;29;20137;-83
2020/12/31 12:35:13;;;;;;;4.63;0.68;;;15.90;96.90;;;;;;4821533;29;20467;-82
2020/12/31 12:37:39;;;;;;;2.65;0.80;;;15.10;97.50;;;;;;4821469;29;20029;-82
2020/12/31 12:40:07;;;;;;;1.88;0.77;;;15.30;98.20;;;;;;4821190;29;20038;-83
2020/12/31 12:42:34;;;;;;;2.88;0.80;;;15.50;98.10;;;;;;4823754;29;20109;-83
2020/12/31 12:45:03;;;;;;;1.45;0.68;;;15.70;98.00;;;;;;4822261;29;20045;-82
2020/12/31 12:47:32;;;;;;;4.22;0.70;;;15.80;98.20;;;;;;4819085;29;20106;-83
2020/12/31 12:49:58;;;;;;;3.67;0.77;;;15.80;96.20;;;;;;4805830;29;20030;-83
2020/12/31 12:52:24;;;;;;;4.55;1.23;;;15.90;96.80;;;;;;4806722;29;20037;-82
2020/12/31 12:54:50;;;;;;;2.75;0.70;;;16.00;96.80;;;;;;4820555;29;20393;-82